createdAt,value
2022-11-21T00:00:57.516Z,4.15
2022-11-21T00:03:02.194Z,4.14
2022-11-21T00:05:07.857Z,4.09
2022-11-21T00:07:13.912Z,4.11
2022-11-21T00:09:17.672Z,4.05
2022-11-21T00:11:23.201Z,4.02
2022-11-21T00:13:30.493Z,4.03
2022-11-21T00:15:37.189Z,4.00
2022-11-21T00:17:51.414Z,3.95
2022-11-21T00:19:54.661Z,3.95
2022-11-21T00:22:01.673Z,3.94
2022-11-21T00:24:10.902Z,3.95
2022-11-21T00:26:21.105Z,3.89
2022-11-21T00:28:25.392Z,3.86
2022-11-21T00:30:37.616Z,3.83
2022-11-21T00:32:42.378Z,3.78
2022-11-21T00:34:46.501Z,3.77
2022-11-21T00:36:52.999Z,3.74
2022-11-21T00:38:57.449Z,3.73
2022-11-21T00:41:03.945Z,3.69
2022-11-21T00:43:07.818Z,3.59
2022-11-21T00:45:12.032Z,3.61
2022-11-21T00:47:17.832Z,3.60
2022-11-21T00:49:20.853Z,3.60
2022-11-21T00:51:24.836Z,3.58
2022-11-21T00:53:28.385Z,3.54
2022-11-21T00:55:32.662Z,3.53
2022-11-21T00:57:38.176Z,3.53
2022-11-21T00:59:50.144Z,3.49
2022-11-21T01:01:56.166Z,3.46
2022-11-21T01:04:01.750Z,3.46
2022-11-21T01:06:09.227Z,3.48
2022-11-21T01:08:14.533Z,3.48
2022-11-21T01:10:21.080Z,3.47
2022-11-21T01:12:24.498Z,3.49
2022-11-21T01:14:30.353Z,3.48
2022-11-21T01:16:35.237Z,3.43
2022-11-21T01:18:43.043Z,3.49
2022-11-21T01:20:48.006Z,3.46
2022-11-21T01:22:53.621Z,3.47
2022-11-21T01:24:58.506Z,3.46
2022-11-21T01:27:03.310Z,3.48
2022-11-21T01:29:09.705Z,3.52
2022-11-21T01:31:17.546Z,3.49
2022-11-21T01:33:21.237Z,3.48
2022-11-21T01:35:36.534Z,3.50
2022-11-21T01:37:41.485Z,3.51
2022-11-21T01:39:44.755Z,3.51
2022-11-21T01:41:59.384Z,3.51
2022-11-21T01:44:05.136Z,3.51
2022-11-21T01:46:13.969Z,3.49
2022-11-21T01:48:18.888Z,3.50
2022-11-21T01:50:23.296Z,3.53
2022-11-21T01:52:31.046Z,3.51
2022-11-21T01:54:41.022Z,3.50
2022-11-21T01:56:46.826Z,3.51
2022-11-21T01:58:51.293Z,3.52
2022-11-21T02:00:56.162Z,3.50
2022-11-21T02:03:04.347Z,3.50
2022-11-21T02:05:09.902Z,3.52
2022-11-21T02:07:17.022Z,3.49
2022-11-21T02:09:28.774Z,3.47
2022-11-21T02:11:42.298Z,3.46
2022-11-21T02:13:47.301Z,3.41
2022-11-21T02:15:52.462Z,3.37
2022-11-21T02:17:56.900Z,3.35
2022-11-21T02:20:02.013Z,3.28
2022-11-21T02:22:11.881Z,3.25
2022-11-21T02:24:25.536Z,3.19
2022-11-21T02:26:30.910Z,3.16
2022-11-21T02:28:38.700Z,3.12
2022-11-21T02:30:44.797Z,3.11
2022-11-21T02:32:49.495Z,3.08
2022-11-21T02:34:53.623Z,3.07
2022-11-21T02:37:01.710Z,3.01
2022-11-21T02:39:08.972Z,2.98
2022-11-21T02:41:16.947Z,2.98
2022-11-21T02:43:27.382Z,2.98
2022-11-21T02:45:35.684Z,2.98
2022-11-21T02:47:40.376Z,2.98
2022-11-21T02:49:51.802Z,2.98
2022-11-21T02:51:56.625Z,2.97
2022-11-21T02:53:59.837Z,2.94
2022-11-21T02:56:06.287Z,2.86
2022-11-21T02:58:10.763Z,2.89
2022-11-21T03:00:16.958Z,2.92
2022-11-21T03:02:20.878Z,2.95
2022-11-21T03:04:23.801Z,2.88
2022-11-21T03:06:27.765Z,2.86
2022-11-21T03:08:31.520Z,2.84
2022-11-21T03:10:37.678Z,2.89
2022-11-21T03:12:43.846Z,2.92
2022-11-21T03:14:49.723Z,2.91
2022-11-21T03:16:55.847Z,2.92
2022-11-21T03:19:02.704Z,2.92
2022-11-21T03:21:05.942Z,2.92
2022-11-21T03:23:09.274Z,2.91
2022-11-21T03:25:12.218Z,2.95
2022-11-21T03:27:17.433Z,2.93
2022-11-21T03:29:21.195Z,2.93
2022-11-21T03:31:24.719Z,2.97
2022-11-21T03:33:30.938Z,2.99
2022-11-21T03:35:34.504Z,3.02
2022-11-21T03:37:40.363Z,3.04
2022-11-21T03:39:45.240Z,3.04
2022-11-21T03:41:48.275Z,3.03
2022-11-21T03:43:51.305Z,3.03
2022-11-21T03:45:54.397Z,3.05
2022-11-21T03:48:00.215Z,3.08
2022-11-21T03:50:06.929Z,3.05
2022-11-21T03:52:11.885Z,3.08
2022-11-21T03:54:16.352Z,3.11
2022-11-21T03:56:20.995Z,3.09
2022-11-21T03:58:24.141Z,3.06
2022-11-21T04:00:27.125Z,3.07
2022-11-21T04:02:31.544Z,3.03
2022-11-21T04:04:36.326Z,3.07
2022-11-21T04:06:40.900Z,3.07
2022-11-21T04:08:44.271Z,3.07
2022-11-21T04:10:48.215Z,3.06
2022-11-21T04:12:51.331Z,3.06
2022-11-21T04:14:55.695Z,3.04
2022-11-21T04:16:58.920Z,2.97
2022-11-21T04:19:03.381Z,2.97
2022-11-21T04:21:08.457Z,2.97
2022-11-21T04:23:16.297Z,2.99
2022-11-21T04:25:20.237Z,2.94
2022-11-21T04:27:25.167Z,2.91
2022-11-21T04:29:29.717Z,2.88
2022-11-21T04:31:32.616Z,2.91
2022-11-21T04:33:35.893Z,2.91
2022-11-21T04:35:40.195Z,2.95
2022-11-21T04:37:43.301Z,2.87
2022-11-21T04:39:48.009Z,2.83
2022-11-21T04:41:51.233Z,2.74
2022-11-21T04:43:55.327Z,2.69
2022-11-21T04:46:07.833Z,2.69
2022-11-21T04:48:11.857Z,2.71
2022-11-21T04:50:19.582Z,2.67
2022-11-21T04:52:25.033Z,2.64
2022-11-21T04:54:28.510Z,2.65
2022-11-21T04:56:35.379Z,2.51
2022-11-21T04:58:39.433Z,2.59
2022-11-21T05:00:42.629Z,2.44
2022-11-21T05:02:45.720Z,2.42
2022-11-21T05:04:48.637Z,2.31
2022-11-21T05:06:52.361Z,2.30
2022-11-21T05:08:56.447Z,2.21
2022-11-21T05:11:16.964Z,2.38
2022-11-21T05:13:25.180Z,2.40
2022-11-21T05:15:28.306Z,2.38
2022-11-21T05:17:31.262Z,2.42
2022-11-21T05:19:34.163Z,2.50
2022-11-21T05:21:37.058Z,2.50
2022-11-21T05:23:40.086Z,2.53
2022-11-21T05:25:42.972Z,2.51
2022-11-21T05:27:45.965Z,2.51
2022-11-21T05:29:50.237Z,2.56
2022-11-21T05:31:53.104Z,2.57
2022-11-21T05:33:56.054Z,2.52
2022-11-21T05:35:58.957Z,2.36
2022-11-21T05:38:01.925Z,2.41
2022-11-21T05:40:05.539Z,2.36
2022-11-21T05:42:08.358Z,2.24
2022-11-21T05:44:10.229Z,2.30
2022-11-21T05:46:15.277Z,2.47
2022-11-21T05:48:19.487Z,2.49
2022-11-21T05:50:22.362Z,2.56
2022-11-21T05:52:25.187Z,2.46
2022-11-21T05:54:28.427Z,2.56
2022-11-21T05:56:31.544Z,2.54
2022-11-21T05:58:34.845Z,2.59
2022-11-21T06:00:38.372Z,2.68
2022-11-21T06:03:08.592Z,2.73
2022-11-21T06:05:11.457Z,2.68
2022-11-21T06:07:14.396Z,2.69
2022-11-21T06:09:17.337Z,2.54
2022-11-21T06:11:20.372Z,2.74
2022-11-21T06:13:23.494Z,2.80
2022-11-21T06:15:26.562Z,2.82
2022-11-21T06:17:29.420Z,2.86
2022-11-21T06:19:33.588Z,2.90
2022-11-21T06:21:37.292Z,2.87
2022-11-21T06:23:40.155Z,2.92
2022-11-21T06:25:43.748Z,2.97
2022-11-21T06:27:46.638Z,2.99
2022-11-21T06:29:49.632Z,3.01
2022-11-21T06:31:53.151Z,3.01
2022-11-21T06:33:57.572Z,3.00
2022-11-21T06:36:04.383Z,3.04
2022-11-21T06:38:07.291Z,3.01
2022-11-21T06:40:11.684Z,3.00
2022-11-21T06:42:14.706Z,2.97
2022-11-21T06:44:18.006Z,3.00
2022-11-21T06:46:20.940Z,3.01
2022-11-21T06:48:23.907Z,3.04
2022-11-21T06:50:26.960Z,3.11
2022-11-21T06:52:33.751Z,3.06
2022-11-21T06:54:37.070Z,3.04
2022-11-21T06:56:39.958Z,3.15
2022-11-21T06:58:43.562Z,3.16
2022-11-21T07:00:48.757Z,3.18
2022-11-21T07:02:52.655Z,3.20
2022-11-21T07:04:56.209Z,3.15
2022-11-21T07:07:00.401Z,3.24
2022-11-21T07:12:58.183Z,3.28
2022-11-21T07:15:01.573Z,3.27
2022-11-21T07:17:05.826Z,3.30
2022-11-21T07:19:09.023Z,3.31
2022-11-21T07:21:12.234Z,3.34
2022-11-21T07:23:15.852Z,3.32
2022-11-21T07:25:19.071Z,3.36
2022-11-21T07:27:26.654Z,3.41
2022-11-21T07:29:32.690Z,3.47
2022-11-21T07:31:35.863Z,3.48
2022-11-21T07:33:39.678Z,3.51
2022-11-21T07:35:47.469Z,3.53
2022-11-21T07:37:50.493Z,3.55
2022-11-21T07:39:53.413Z,3.63
2022-11-21T07:41:58.464Z,3.71
2022-11-21T07:44:02.283Z,3.68
2022-11-21T07:46:13.868Z,3.71
2022-11-21T07:48:21.044Z,3.71
2022-11-21T07:50:24.337Z,3.71
2022-11-21T07:52:30.288Z,3.74
2022-11-21T07:54:34.934Z,3.72
2022-11-21T07:56:38.146Z,3.72
2022-11-21T07:58:41.972Z,3.74
2022-11-21T08:00:46.404Z,3.76
2022-11-21T08:02:51.954Z,3.77
2022-11-21T08:04:54.993Z,3.78
2022-11-21T08:06:58.659Z,3.82
2022-11-21T08:09:03.810Z,3.83
2022-11-21T08:11:09.622Z,3.85
2022-11-21T08:13:13.526Z,3.90
2022-11-21T08:15:18.278Z,3.95
2022-11-21T08:17:21.615Z,3.98
2022-11-21T08:19:27.582Z,3.99
2022-11-21T08:21:32.886Z,4.09
2022-11-21T08:23:36.561Z,4.09
2022-11-21T08:25:43.686Z,4.11
2022-11-21T08:27:51.377Z,4.02
2022-11-21T08:29:54.674Z,4.10
2022-11-21T08:31:57.662Z,4.19
2022-11-21T08:34:01.259Z,4.23
2022-11-21T08:36:10.727Z,4.25
2022-11-21T08:38:13.624Z,4.28
2022-11-21T08:40:17.007Z,4.22
2022-11-21T08:42:20.035Z,4.24
2022-11-21T08:44:23.358Z,4.27
2022-11-21T08:46:28.265Z,4.26
2022-11-21T08:48:39.726Z,4.26
2022-11-21T08:50:43.700Z,4.34
2022-11-21T08:52:49.027Z,4.39
2022-11-21T08:54:52.392Z,4.42
2022-11-21T08:56:58.876Z,4.43
2022-11-21T08:59:02.726Z,4.38
2022-11-21T09:01:07.453Z,4.46
2022-11-21T09:03:11.135Z,4.43
2022-11-21T09:05:14.488Z,4.51
2022-11-21T09:07:17.848Z,4.61
2022-11-21T09:09:25.589Z,4.67
2022-11-21T09:11:31.539Z,4.63
2022-11-21T09:13:38.561Z,4.68
2022-11-21T09:15:59.474Z,4.73
2022-11-21T09:18:05.239Z,4.79
2022-11-21T09:20:11.249Z,4.77
2022-11-21T09:22:19.379Z,4.81
2022-11-21T09:24:24.828Z,4.82
2022-11-21T09:26:30.523Z,4.87
2022-11-21T09:28:36.786Z,4.91
2022-11-21T09:30:41.023Z,4.95
2022-11-21T09:32:44.691Z,4.98
2022-11-21T09:34:48.782Z,4.96
2022-11-21T09:36:55.713Z,4.99
2022-11-21T09:39:03.257Z,4.95
2022-11-21T09:41:33.900Z,4.98
2022-11-21T09:43:48.083Z,4.94
2022-11-21T09:46:01.772Z,4.99
2022-11-21T09:48:12.939Z,5.00
2022-11-21T09:50:31.120Z,5.01
2022-11-21T09:52:39.533Z,5.00
2022-11-21T09:54:48.533Z,5.02
2022-11-21T09:56:54.977Z,5.01
2022-11-21T09:59:11.436Z,5.10
2022-11-21T10:01:17.126Z,5.03
2022-11-21T10:03:24.890Z,5.02
2022-11-21T10:05:36.969Z,4.99
2022-11-21T10:07:45.159Z,5.00
2022-11-21T10:10:02.547Z,5.00
2022-11-21T10:12:30.641Z,4.98
2022-11-21T10:14:49.232Z,5.04
2022-11-21T10:16:58.638Z,5.06
2022-11-21T10:19:18.095Z,5.12
2022-11-21T10:21:33.518Z,5.13
2022-11-21T10:23:55.522Z,5.20
2022-11-21T10:26:08.287Z,5.26
2022-11-21T10:28:20.226Z,5.32
2022-11-21T10:30:23.778Z,5.38
2022-11-21T10:32:32.135Z,5.46
2022-11-21T10:34:39.588Z,5.52
2022-11-21T10:36:49.040Z,5.54
2022-11-21T10:38:56.980Z,5.62
2022-11-21T10:41:13.670Z,5.72
2022-11-21T10:43:45.515Z,5.76
2022-11-21T10:45:51.730Z,5.82
2022-11-21T10:47:55.134Z,5.81
2022-11-21T10:50:09.657Z,5.84
2022-11-21T10:52:17.436Z,5.77
2022-11-21T10:54:33.694Z,5.73
2022-11-21T10:56:38.935Z,5.78
2022-11-21T10:58:46.194Z,5.74
2022-11-21T11:00:59.278Z,5.82
2022-11-21T11:03:07.327Z,5.83
2022-11-21T11:05:24.744Z,5.91
2022-11-21T11:07:29.338Z,5.88
2022-11-21T11:09:35.224Z,5.99
2022-11-21T11:11:39.477Z,5.91
2022-11-21T11:13:58.967Z,5.98
2022-11-21T11:16:05.572Z,6.01
2022-11-21T11:18:15.860Z,6.02
2022-11-21T11:20:35.913Z,6.14
2022-11-21T11:22:39.257Z,6.21
2022-11-21T11:25:00.471Z,6.23
2022-11-21T11:27:07.905Z,6.24
2022-11-21T11:29:18.224Z,6.34
2022-11-21T11:31:22.341Z,6.39
2022-11-21T11:33:35.746Z,6.48
2022-11-21T11:35:40.511Z,6.50
2022-11-21T11:37:47.526Z,6.54
2022-11-21T11:39:58.311Z,6.69
2022-11-21T11:42:35.945Z,6.85
2022-11-21T11:45:07.657Z,7.00
2022-11-21T11:47:34.323Z,7.05
2022-11-21T11:49:56.220Z,7.00
2022-11-21T11:52:04.093Z,7.11
2022-11-21T11:54:11.880Z,7.28
2022-11-21T11:56:21.627Z,7.29
2022-11-21T11:58:29.310Z,7.65
2022-11-21T12:00:40.974Z,7.61
2022-11-21T12:02:51.553Z,7.66
2022-11-21T12:05:02.728Z,7.95
2022-11-21T12:09:44.579Z,7.89
2022-11-21T12:12:11.999Z,7.91
2022-11-21T12:14:38.029Z,8.14
2022-11-21T12:16:43.018Z,8.27
2022-11-21T12:18:54.111Z,8.12
2022-11-21T12:21:01.563Z,8.20
2022-11-21T12:23:08.502Z,8.07
2022-11-21T12:25:14.259Z,8.02
2022-11-21T12:27:28.293Z,7.97
2022-11-21T12:29:41.207Z,7.92
2022-11-21T12:32:05.663Z,7.87
2022-11-21T12:34:19.434Z,7.83
2022-11-21T12:36:30.241Z,7.90
2022-11-21T12:39:22.575Z,7.87
2022-11-21T12:41:48.722Z,7.93
2022-11-21T12:44:00.591Z,7.96
2022-11-21T12:46:14.148Z,7.91
2022-11-21T12:48:53.708Z,7.85
2022-11-21T12:51:27.007Z,7.82
2022-11-21T12:53:57.365Z,7.93
2022-11-21T12:56:04.864Z,7.90
2022-11-21T12:58:22.304Z,7.86
2022-11-21T13:00:29.786Z,7.82
2022-11-21T13:02:40.818Z,7.86
2022-11-21T13:04:47.107Z,7.92
2022-11-21T13:06:50.406Z,7.92
2022-11-21T13:08:54.518Z,7.92
2022-11-21T13:11:21.090Z,8.01
2022-11-21T13:13:29.948Z,7.98
2022-11-21T13:15:38.886Z,7.96
2022-11-21T13:17:47.870Z,7.97
2022-11-21T13:19:56.515Z,8.11
2022-11-21T13:21:59.409Z,8.19
2022-11-21T13:24:02.307Z,8.22
2022-11-21T13:26:40.093Z,8.35
2022-11-21T13:28:46.045Z,8.44
2022-11-21T13:30:51.795Z,8.46
2022-11-21T13:32:55.411Z,8.58
2022-11-21T13:35:01.174Z,8.73
2022-11-21T13:37:05.425Z,8.81
2022-11-21T13:39:36.382Z,8.84
2022-11-21T13:42:20.582Z,8.81
2022-11-21T13:44:40.654Z,8.80
2022-11-21T13:47:00.356Z,8.77
2022-11-21T13:49:09.876Z,8.77
2022-11-21T13:51:39.711Z,8.64
2022-11-21T13:54:05.375Z,8.59
2022-11-21T13:56:12.952Z,8.56
2022-11-21T13:58:26.280Z,8.56
2022-11-21T14:00:38.089Z,8.53
2022-11-21T14:03:06.312Z,8.58
2022-11-21T14:05:23.933Z,8.45
2022-11-21T14:07:32.743Z,8.41
2022-11-21T14:09:37.106Z,8.28
2022-11-21T14:11:48.218Z,8.30
2022-11-21T14:13:51.466Z,8.27
2022-11-21T14:16:30.531Z,8.22
2022-11-21T14:18:33.791Z,8.21
2022-11-21T14:20:54.795Z,8.17
2022-11-21T14:23:03.213Z,8.16
2022-11-21T14:25:08.972Z,8.11
2022-11-21T14:27:18.362Z,8.08
2022-11-21T14:29:26.927Z,8.06
2022-11-21T14:31:30.413Z,8.11
2022-11-21T14:33:34.477Z,8.05
2022-11-21T14:35:37.362Z,8.03
2022-11-21T14:37:41.641Z,7.91
2022-11-21T14:39:56.513Z,7.93
2022-11-21T14:42:02.068Z,7.91
2022-11-21T14:44:16.780Z,7.80
2022-11-21T14:46:21.805Z,7.80
2022-11-21T14:48:27.428Z,7.75
2022-11-21T14:50:32.612Z,7.69
2022-11-21T14:52:35.605Z,7.67
2022-11-21T14:55:06.469Z,7.63
2022-11-21T14:57:09.984Z,7.56
2022-11-21T14:59:21.237Z,7.54
2022-11-21T15:01:26.445Z,7.52
2022-11-21T15:03:29.344Z,7.42
2022-11-21T15:06:00.650Z,7.34
2022-11-21T15:08:17.151Z,7.36
2022-11-21T15:10:29.449Z,7.32
2022-11-21T15:12:38.547Z,7.25
2022-11-21T15:14:47.735Z,7.17
2022-11-21T15:16:52.132Z,7.09
2022-11-21T15:18:55.472Z,7.04
2022-11-21T15:21:00.098Z,7.02
2022-11-21T15:23:03.694Z,6.97
2022-11-21T15:25:09.307Z,6.93
2022-11-21T15:27:31.384Z,6.86
2022-11-21T15:29:35.957Z,6.80
2022-11-21T15:31:38.828Z,6.81
2022-11-21T15:36:23.287Z,6.72
2022-11-21T15:38:29.888Z,6.65
2022-11-21T15:40:33.339Z,6.63
2022-11-21T15:42:38.064Z,6.64
2022-11-21T15:44:58.529Z,6.62
2022-11-21T15:47:02.523Z,6.57
2022-11-21T15:49:31.533Z,6.54
2022-11-21T15:53:57.605Z,6.43
2022-11-21T15:56:00.464Z,6.39
2022-11-21T15:58:03.747Z,6.35
2022-11-21T16:00:09.566Z,6.30
2022-11-21T16:02:14.957Z,6.28
2022-11-21T16:04:22.393Z,6.26
2022-11-21T16:06:28.666Z,6.21
2022-11-21T16:08:34.152Z,6.19
2022-11-21T16:10:37.218Z,6.17
2022-11-21T16:12:40.097Z,6.11
2022-11-21T16:14:42.979Z,6.11
2022-11-21T16:16:47.855Z,6.10
2022-11-21T16:18:50.927Z,6.14
2022-11-21T16:20:54.098Z,6.13
2022-11-21T16:22:57.168Z,6.17
2022-11-21T16:25:01.763Z,6.16
2022-11-21T16:27:05.100Z,6.16
2022-11-21T16:29:08.103Z,6.14
2022-11-21T16:31:19.811Z,6.16
2022-11-21T16:33:27.316Z,6.18
2022-11-21T16:35:33.128Z,6.15
2022-11-21T16:37:36.095Z,6.11
2022-11-21T16:39:39.596Z,6.08
2022-11-21T16:41:44.278Z,6.11
2022-11-21T16:43:49.854Z,6.06
2022-11-21T16:45:53.506Z,6.06
2022-11-21T16:47:56.367Z,6.02
2022-11-21T16:50:00.958Z,6.01
2022-11-21T16:52:03.800Z,5.97
2022-11-21T16:54:09.214Z,5.99
2022-11-21T16:56:12.621Z,6.00
2022-11-21T16:58:15.430Z,5.98
2022-11-21T17:00:19.777Z,6.00
2022-11-21T17:02:23.087Z,5.99
2022-11-21T17:04:26.564Z,6.03
2022-11-21T17:06:32.417Z,6.07
2022-11-21T17:08:36.366Z,6.05
2022-11-21T17:10:39.280Z,6.09
2022-11-21T17:12:43.943Z,6.07
2022-11-21T17:14:48.312Z,6.07
2022-11-21T17:16:51.414Z,6.07
2022-11-21T17:18:55.110Z,6.00
2022-11-21T17:20:58.308Z,6.01
2022-11-21T17:23:03.806Z,6.03
2022-11-21T17:25:10.110Z,6.02
2022-11-21T17:27:13.190Z,6.02
2022-11-21T17:29:17.106Z,6.04
2022-11-21T17:31:20.284Z,6.05
2022-11-21T17:33:24.055Z,6.12
2022-11-21T17:35:27.558Z,6.07
2022-11-21T17:37:30.776Z,6.08
2022-11-21T17:39:35.308Z,6.15
2022-11-21T17:41:42.841Z,6.15
2022-11-21T17:43:47.188Z,6.17
2022-11-21T17:45:50.943Z,6.19
2022-11-21T17:47:53.755Z,6.20
2022-11-21T17:50:00.010Z,6.22
2022-11-21T17:52:08.030Z,6.26
2022-11-21T17:54:13.758Z,6.27
2022-11-21T17:56:20.216Z,6.25
2022-11-21T17:58:23.091Z,6.27
2022-11-21T18:00:26.214Z,6.28
2022-11-21T18:02:29.387Z,6.33
2022-11-21T18:04:34.404Z,6.31
2022-11-21T18:06:39.391Z,6.32
2022-11-21T18:08:43.863Z,6.34
2022-11-21T18:10:53.041Z,6.30
2022-11-21T18:13:02.072Z,6.35
2022-11-21T18:15:06.639Z,6.30
2022-11-21T18:17:16.928Z,6.25
2022-11-21T18:19:24.246Z,6.27
2022-11-21T18:21:30.986Z,6.27
2022-11-21T18:23:39.287Z,6.27
2022-11-21T18:25:43.861Z,6.27
2022-11-21T18:27:54.342Z,6.28
2022-11-21T18:30:01.510Z,6.32
2022-11-21T18:32:07.535Z,6.31
2022-11-21T18:34:12.651Z,6.32
2022-11-21T18:36:18.267Z,6.28
2022-11-21T18:38:46.906Z,6.33
2022-11-21T18:40:46.254Z,6.32
2022-11-21T18:42:49.084Z,6.32
2022-11-21T18:44:53.336Z,6.31
2022-11-21T18:46:57.644Z,6.29
2022-11-21T18:49:04.669Z,6.30
2022-11-21T18:51:14.844Z,6.31
2022-11-21T18:53:25.939Z,6.27
2022-11-21T18:55:31.250Z,6.29
2022-11-21T18:57:36.379Z,6.35
2022-11-21T18:59:40.617Z,6.40
2022-11-21T19:01:50.684Z,6.46
2022-11-21T19:03:56.242Z,6.47
2022-11-21T19:06:01.077Z,6.49
2022-11-21T19:08:04.052Z,6.48
2022-11-21T19:10:35.615Z,6.50
2022-11-21T19:12:36.304Z,6.51
2022-11-21T19:14:42.151Z,6.59
2022-11-21T19:16:45.466Z,6.61
2022-11-21T19:19:05.769Z,6.67
2022-11-21T19:21:16.067Z,6.69
2022-11-21T19:23:19.427Z,6.70
2022-11-21T19:25:22.378Z,6.72
2022-11-21T19:27:25.639Z,6.78
2022-11-21T19:29:30.234Z,6.80
2022-11-21T19:31:34.872Z,6.80
2022-11-21T19:33:41.348Z,6.77
2022-11-21T19:35:44.595Z,6.78
2022-11-21T19:37:49.514Z,6.78
2022-11-21T19:39:52.778Z,6.72
2022-11-21T19:41:55.980Z,6.74
2022-11-21T19:44:00.598Z,6.74
2022-11-21T19:46:04.313Z,6.73
2022-11-21T19:48:07.796Z,6.74
2022-11-21T19:50:10.885Z,6.76
2022-11-21T19:52:13.880Z,6.76
2022-11-21T19:54:18.803Z,6.79
2022-11-21T19:56:23.015Z,6.79
2022-11-21T19:58:27.451Z,6.77
2022-11-21T20:00:31.131Z,6.76
2022-11-21T20:02:33.976Z,6.76
2022-11-21T20:04:38.233Z,6.79
2022-11-21T20:06:47.290Z,6.84
2022-11-21T20:08:53.850Z,6.87
2022-11-21T20:11:12.788Z,6.95
2022-11-21T20:13:17.298Z,6.94
2022-11-21T20:15:20.412Z,6.95
2022-11-21T20:17:25.822Z,6.98
2022-11-21T20:19:29.570Z,7.00
2022-11-21T20:21:33.739Z,7.02
2022-11-21T20:23:38.773Z,7.01
2022-11-21T20:25:52.264Z,7.01
2022-11-21T20:27:58.768Z,7.03
2022-11-21T20:30:02.851Z,7.03
2022-11-21T20:32:09.329Z,7.09
2022-11-21T20:34:19.472Z,7.13
2022-11-21T20:36:25.014Z,7.19
2022-11-21T20:38:28.033Z,7.20
2022-11-21T20:40:31.979Z,7.20
2022-11-21T20:42:40.464Z,7.23
2022-11-21T20:47:13.171Z,7.22
2022-11-21T20:49:20.993Z,7.18
2022-11-21T20:53:59.981Z,7.21
2022-11-21T20:56:06.551Z,7.23
2022-11-21T20:58:15.295Z,7.24
2022-11-21T21:00:26.207Z,7.22
2022-11-21T21:02:31.436Z,7.25
2022-11-21T21:04:38.093Z,7.25
2022-11-21T21:06:44.104Z,7.22
2022-11-21T21:08:48.176Z,7.23
2022-11-21T21:11:05.801Z,7.29
2022-11-21T21:13:10.076Z,7.27
2022-11-21T21:15:18.419Z,7.29
2022-11-21T21:17:24.124Z,7.29
2022-11-21T21:19:27.297Z,7.29
2022-11-21T21:21:31.646Z,7.32
2022-11-21T21:23:36.746Z,7.31
2022-11-21T21:25:39.907Z,7.25
2022-11-21T21:27:42.748Z,7.30
2022-11-21T21:29:45.896Z,7.30
2022-11-21T21:31:52.060Z,7.34
2022-11-21T21:33:57.446Z,7.35
2022-11-21T21:36:05.535Z,7.35
2022-11-21T21:38:09.270Z,7.41
2022-11-21T21:40:12.945Z,7.40
2022-11-21T21:42:15.786Z,7.42
2022-11-21T21:44:18.966Z,7.45
2022-11-21T21:46:24.354Z,7.46
2022-11-21T21:48:27.360Z,7.48
2022-11-21T21:50:31.616Z,7.46
2022-11-21T21:52:35.307Z,7.47
2022-11-21T21:54:38.192Z,7.46
2022-11-21T21:56:41.050Z,7.48
2022-11-21T21:58:45.326Z,7.53
2022-11-21T22:00:48.507Z,7.52
2022-11-21T22:02:51.353Z,7.59
2022-11-21T22:04:54.198Z,7.65
2022-11-21T22:06:58.564Z,7.73
2022-11-21T22:09:01.444Z,7.74
2022-11-21T22:11:06.040Z,7.77
2022-11-21T22:13:10.086Z,7.78
2022-11-21T22:15:12.996Z,7.81
2022-11-21T22:17:15.896Z,7.80
2022-11-21T22:19:20.947Z,7.78
2022-11-21T22:21:25.362Z,7.78
2022-11-21T22:23:30.559Z,7.76
2022-11-21T22:25:33.422Z,7.82
2022-11-21T22:27:36.247Z,7.81
2022-11-21T22:29:39.179Z,7.82
2022-11-21T22:31:42.864Z,7.84
2022-11-21T22:33:46.599Z,7.83
2022-11-21T22:35:49.561Z,7.86
2022-11-21T22:37:52.857Z,7.82
2022-11-21T22:39:57.178Z,7.83
2022-11-21T22:42:00.201Z,7.85
2022-11-21T22:44:03.480Z,7.82
2022-11-21T22:46:07.343Z,7.82
2022-11-21T22:48:10.218Z,7.86
2022-11-21T22:50:13.069Z,7.85
2022-11-21T22:52:15.909Z,7.80
2022-11-21T22:54:18.819Z,7.82
2022-11-21T22:56:24.168Z,7.80
2022-11-21T22:58:27.490Z,7.78
2022-11-21T23:00:30.651Z,7.81
2022-11-21T23:02:35.383Z,7.83
2022-11-21T23:04:38.208Z,7.76
2022-11-21T23:06:41.224Z,7.71
2022-11-21T23:08:44.398Z,7.75
2022-11-21T23:10:47.209Z,7.73
2022-11-21T23:12:51.756Z,7.69
2022-11-21T23:14:54.776Z,7.69
2022-11-21T23:16:57.626Z,7.73
2022-11-21T23:19:00.660Z,7.64
2022-11-21T23:21:03.602Z,7.67
2022-11-21T23:23:06.534Z,7.65
2022-11-21T23:25:09.549Z,7.62
2022-11-21T23:27:12.435Z,7.54
2022-11-21T23:29:16.677Z,7.58
2022-11-21T23:31:19.526Z,7.57
2022-11-21T23:33:22.975Z,7.54
2022-11-21T23:35:25.872Z,7.49
2022-11-21T23:37:28.800Z,7.49
2022-11-21T23:39:32.287Z,7.51
2022-11-21T23:41:35.512Z,7.47
2022-11-21T23:43:38.476Z,7.36
2022-11-21T23:45:42.766Z,7.33
2022-11-21T23:47:47.038Z,7.29
2022-11-21T23:49:50.402Z,7.28
2022-11-21T23:51:53.222Z,7.26
2022-11-21T23:53:56.429Z,7.27
2022-11-21T23:55:59.358Z,7.26
2022-11-21T23:58:02.210Z,7.22
